createdAt,value
2018-12-16T00:01:43.403Z,70.20
2018-12-16T00:04:11.162Z,70.20
2018-12-16T00:06:39.077Z,69.80
2018-12-16T00:09:07.239Z,69.80
2018-12-16T00:11:34.980Z,69.70
2018-12-16T00:14:02.746Z,69.70
2018-12-16T00:16:30.495Z,69.30
2018-12-16T00:18:58.211Z,69.40
2018-12-16T00:21:26.251Z,69.30
2018-12-16T00:23:53.988Z,69.10
2018-12-16T00:26:21.780Z,69.20
2018-12-16T00:28:49.724Z,69.40
2018-12-16T00:31:17.472Z,69.40
2018-12-16T00:33:45.198Z,69.50
2018-12-16T00:36:12.964Z,69.50
2018-12-16T00:38:40.690Z,69.80
2018-12-16T00:41:08.483Z,70.00
2018-12-16T00:43:36.243Z,70.00
2018-12-16T00:46:04.111Z,69.70
2018-12-16T00:48:31.887Z,69.70
2018-12-16T00:50:59.632Z,69.80
2018-12-16T00:53:27.463Z,69.70
2018-12-16T00:55:55.219Z,70.50
2018-12-16T00:58:22.987Z,70.00
2018-12-16T01:00:50.832Z,70.10
2018-12-16T01:03:18.647Z,70.10
2018-12-16T01:05:48.799Z,70.10
2018-12-16T01:08:16.887Z,70.00
2018-12-16T01:10:44.596Z,70.20
2018-12-16T01:13:12.359Z,70.70
2018-12-16T01:15:40.131Z,70.60
2018-12-16T01:18:07.876Z,70.80
2018-12-16T01:20:36.485Z,70.80
2018-12-16T01:23:04.375Z,70.60
2018-12-16T01:25:32.607Z,70.70
2018-12-16T01:28:00.354Z,70.80
2018-12-16T01:30:28.140Z,70.80
2018-12-16T01:32:55.886Z,71.00
2018-12-16T01:35:23.698Z,71.20
2018-12-16T01:37:51.542Z,71.30
2018-12-16T01:40:19.327Z,71.60
2018-12-16T01:42:47.194Z,71.70
2018-12-16T01:45:14.958Z,72.10
2018-12-16T01:47:42.691Z,72.60
2018-12-16T01:50:10.591Z,72.70
2018-12-16T01:52:38.385Z,72.20
2018-12-16T01:55:07.950Z,71.40
2018-12-16T01:57:36.153Z,71.70
2018-12-16T02:00:06.518Z,71.30
2018-12-16T02:02:34.728Z,71.10
2018-12-16T02:05:02.635Z,70.70
2018-12-16T02:07:30.460Z,70.30
2018-12-16T02:09:58.219Z,70.40
2018-12-16T02:12:26.107Z,70.00
2018-12-16T02:14:53.860Z,70.70
2018-12-16T02:17:21.579Z,70.70
2018-12-16T02:19:49.304Z,70.50
2018-12-16T02:22:17.675Z,70.30
2018-12-16T02:24:45.486Z,70.90
2018-12-16T02:27:13.224Z,70.30
2018-12-16T02:29:41.058Z,69.40
2018-12-16T02:32:09.097Z,69.30
2018-12-16T02:34:36.835Z,68.90
2018-12-16T02:37:04.621Z,68.00
2018-12-16T02:39:32.393Z,67.90
2018-12-16T02:42:00.171Z,68.00
2018-12-16T02:44:27.938Z,68.10
2018-12-16T02:46:55.732Z,68.60
2018-12-16T02:49:23.481Z,68.70
2018-12-16T02:51:51.335Z,68.90
2018-12-16T02:54:19.249Z,69.10
2018-12-16T02:56:46.995Z,69.10
2018-12-16T02:59:14.816Z,69.80
2018-12-16T03:01:47.279Z,69.60
2018-12-16T03:04:15.204Z,69.10
2018-12-16T03:06:42.972Z,69.10
2018-12-16T03:09:10.770Z,68.70
2018-12-16T03:11:38.515Z,69.10
2018-12-16T03:14:06.863Z,69.00
2018-12-16T03:16:34.612Z,68.80
2018-12-16T03:19:02.411Z,68.90
2018-12-16T03:21:30.204Z,68.60
2018-12-16T03:23:57.987Z,69.30
2018-12-16T03:26:25.876Z,70.00
2018-12-16T03:28:53.963Z,70.10
2018-12-16T03:31:21.724Z,70.30
2018-12-16T03:33:49.512Z,70.10
2018-12-16T03:36:18.346Z,71.00
2018-12-16T03:38:46.093Z,72.50
2018-12-16T03:41:13.798Z,73.50
2018-12-16T03:43:41.560Z,74.60
2018-12-16T03:46:09.367Z,80.10
2018-12-16T03:48:37.231Z,80.40
2018-12-16T03:51:04.970Z,82.70
2018-12-16T03:53:32.765Z,83.80
2018-12-16T03:56:00.584Z,85.10
2018-12-16T03:58:28.309Z,86.70
2018-12-16T04:00:56.055Z,86.90
2018-12-16T04:03:23.831Z,87.40
2018-12-16T04:05:51.995Z,87.20
2018-12-16T04:08:19.723Z,88.30
2018-12-16T04:10:47.439Z,89.00
2018-12-16T04:13:15.148Z,89.00
2018-12-16T04:15:43.126Z,88.60
2018-12-16T04:18:10.995Z,89.30
2018-12-16T04:20:38.730Z,88.00
2018-12-16T04:23:07.431Z,86.70
2018-12-16T04:25:35.423Z,86.70
2018-12-16T04:28:03.436Z,87.60
2018-12-16T04:30:31.233Z,87.20
2018-12-16T04:32:58.955Z,88.20
2018-12-16T04:35:26.701Z,89.20
2018-12-16T04:37:54.643Z,90.30
2018-12-16T04:40:22.375Z,91.00
2018-12-16T04:42:50.103Z,91.70
2018-12-16T04:45:18.278Z,93.50
2018-12-16T04:47:46.046Z,93.80
2018-12-16T04:50:13.778Z,93.80
2018-12-16T04:52:41.518Z,92.90
2018-12-16T04:55:09.299Z,91.40
2018-12-16T04:57:37.097Z,90.80
2018-12-16T05:00:05.255Z,90.90
2018-12-16T05:02:33.220Z,91.10
2018-12-16T05:05:00.990Z,91.30
2018-12-16T05:07:28.735Z,91.30
2018-12-16T05:10:06.595Z,91.70
2018-12-16T05:12:34.385Z,92.20
2018-12-16T05:15:02.450Z,92.40
2018-12-16T05:17:30.251Z,92.40
2018-12-16T05:19:58.024Z,92.10
2018-12-16T05:22:26.154Z,92.30
2018-12-16T05:24:53.948Z,92.40
2018-12-16T05:27:21.795Z,92.50
2018-12-16T05:29:49.542Z,92.60
2018-12-16T05:32:17.397Z,92.20
2018-12-16T05:34:45.433Z,92.60
2018-12-16T05:37:13.216Z,92.20
2018-12-16T05:39:41.043Z,92.00
2018-12-16T05:42:08.994Z,92.40
2018-12-16T05:44:36.863Z,92.50
2018-12-16T05:47:04.692Z,92.70
2018-12-16T05:49:32.626Z,92.60
2018-12-16T05:52:00.379Z,92.60
2018-12-16T05:54:28.143Z,92.70
2018-12-16T05:56:56.652Z,92.40
2018-12-16T05:59:24.988Z,92.40
2018-12-16T06:01:52.814Z,92.80
2018-12-16T06:04:20.575Z,92.80
2018-12-16T06:06:48.339Z,93.30
2018-12-16T06:09:16.119Z,93.00
2018-12-16T06:11:43.911Z,93.20
2018-12-16T06:14:11.779Z,93.40
2018-12-16T06:16:39.641Z,93.60
2018-12-16T06:19:07.482Z,93.80
2018-12-16T06:21:35.239Z,93.70
2018-12-16T06:24:03.168Z,93.70
2018-12-16T06:26:31.066Z,93.80
2018-12-16T06:28:58.865Z,93.80
2018-12-16T06:31:26.655Z,93.90
2018-12-16T06:33:54.443Z,93.60
2018-12-16T06:36:22.477Z,93.80
2018-12-16T06:38:50.211Z,93.80
2018-12-16T06:41:18.107Z,93.60
2018-12-16T06:43:45.851Z,93.40
2018-12-16T06:46:13.611Z,93.60
2018-12-16T06:48:41.495Z,93.20
2018-12-16T06:51:09.323Z,93.20
2018-12-16T06:53:38.191Z,92.80
2018-12-16T06:56:06.785Z,92.80
2018-12-16T06:58:34.697Z,92.80
2018-12-16T07:01:02.466Z,93.00
2018-12-16T07:03:30.415Z,93.10
2018-12-16T07:05:58.215Z,93.40
2018-12-16T07:08:25.939Z,93.10
2018-12-16T07:10:53.846Z,93.30
2018-12-16T07:13:21.600Z,93.30
2018-12-16T07:15:49.355Z,93.60
2018-12-16T07:18:17.154Z,93.70
2018-12-16T07:20:44.985Z,93.60
2018-12-16T07:23:12.776Z,93.80
2018-12-16T07:25:40.801Z,94.10
2018-12-16T07:28:08.610Z,94.60
2018-12-16T07:30:36.638Z,94.50
2018-12-16T07:33:04.723Z,94.90
2018-12-16T07:35:32.668Z,94.80
2018-12-16T07:38:00.434Z,94.90
2018-12-16T07:40:28.223Z,95.40
2018-12-16T07:42:56.195Z,95.20
2018-12-16T07:45:24.047Z,94.80
2018-12-16T07:47:52.004Z,94.40
2018-12-16T07:50:19.998Z,94.30
2018-12-16T07:52:47.772Z,94.60
2018-12-16T07:55:15.605Z,94.50
2018-12-16T07:57:43.498Z,94.20
2018-12-16T08:00:11.735Z,94.20
2018-12-16T08:02:39.572Z,94.30
2018-12-16T08:05:07.463Z,94.10
2018-12-16T08:07:35.434Z,94.10
2018-12-16T08:10:03.590Z,94.20
2018-12-16T08:12:31.359Z,94.20
2018-12-16T08:14:59.101Z,94.30
2018-12-16T08:17:26.910Z,94.00
2018-12-16T08:19:54.666Z,94.00
2018-12-16T08:22:22.487Z,94.00
2018-12-16T08:24:50.247Z,93.90
2018-12-16T08:27:18.069Z,93.60
2018-12-16T08:29:46.051Z,93.40
2018-12-16T08:32:14.133Z,93.20
2018-12-16T08:34:41.932Z,92.80
2018-12-16T08:37:11.184Z,92.90
2018-12-16T08:39:38.958Z,93.30
2018-12-16T08:42:06.777Z,93.40
2018-12-16T08:44:34.677Z,93.30
2018-12-16T08:47:02.451Z,92.90
2018-12-16T08:49:30.208Z,92.80
2018-12-16T08:51:57.976Z,92.90
2018-12-16T08:54:30.103Z,92.60
2018-12-16T08:56:55.554Z,92.50
2018-12-16T08:59:23.306Z,92.40
2018-12-16T09:01:51.075Z,92.40
2018-12-16T09:04:19.112Z,92.50
2018-12-16T09:06:46.906Z,92.40
2018-12-16T09:09:15.646Z,92.40
2018-12-16T09:11:43.386Z,92.50
2018-12-16T09:14:11.191Z,92.50
2018-12-16T09:16:38.971Z,92.10
2018-12-16T09:19:06.828Z,91.90
2018-12-16T09:21:34.635Z,91.60
2018-12-16T09:24:02.441Z,91.40
2018-12-16T09:26:30.199Z,91.40
2018-12-16T09:28:58.404Z,91.30
2018-12-16T09:31:26.155Z,91.50
2018-12-16T09:33:53.914Z,91.30
2018-12-16T09:36:21.771Z,91.40
2018-12-16T09:38:49.526Z,92.00
2018-12-16T09:41:17.395Z,92.30
2018-12-16T09:43:45.131Z,93.00
2018-12-16T09:46:12.917Z,93.40
2018-12-16T09:48:40.673Z,93.70
2018-12-16T09:51:08.578Z,93.10
2018-12-16T09:53:36.752Z,93.70
2018-12-16T09:56:04.617Z,93.80
2018-12-16T09:58:32.451Z,93.90
2018-12-16T10:01:00.214Z,93.90
2018-12-16T10:03:27.964Z,93.70
2018-12-16T10:05:55.741Z,93.60
2018-12-16T10:08:23.457Z,93.30
2018-12-16T10:10:51.319Z,93.00
2018-12-16T10:13:19.355Z,92.60
2018-12-16T10:15:47.447Z,92.70
2018-12-16T10:18:15.542Z,92.40
2018-12-16T10:20:43.371Z,92.10
2018-12-16T10:23:11.471Z,91.90
2018-12-16T10:25:39.421Z,91.60
2018-12-16T10:28:07.291Z,91.70
2018-12-16T10:30:35.131Z,91.80
2018-12-16T10:33:02.921Z,91.80
2018-12-16T10:35:30.698Z,91.70
2018-12-16T10:37:58.411Z,91.70
2018-12-16T10:40:26.215Z,91.60
2018-12-16T10:42:53.975Z,91.70
2018-12-16T10:45:21.835Z,92.10
2018-12-16T10:47:49.942Z,92.00
2018-12-16T10:50:18.558Z,92.00
2018-12-16T10:52:46.330Z,92.20
2018-12-16T10:55:14.903Z,92.20
2018-12-16T10:57:42.976Z,92.50
2018-12-16T11:00:17.492Z,92.30
2018-12-16T11:02:45.525Z,92.30
2018-12-16T11:05:14.218Z,92.60
2018-12-16T11:07:42.243Z,92.40
2018-12-16T11:10:11.587Z,92.80
2018-12-16T11:12:39.771Z,92.80
2018-12-16T11:15:07.661Z,93.10
2018-12-16T11:17:35.566Z,93.20
2018-12-16T11:20:03.650Z,93.30
2018-12-16T11:22:31.509Z,93.40
2018-12-16T11:25:05.469Z,93.40
2018-12-16T11:27:29.078Z,93.40
2018-12-16T11:29:56.840Z,93.20
2018-12-16T11:32:24.611Z,93.00
2018-12-16T11:34:52.424Z,92.80
2018-12-16T11:37:20.151Z,92.60
2018-12-16T11:39:47.930Z,92.50
2018-12-16T11:42:15.760Z,92.40
2018-12-16T11:44:43.563Z,92.40
2018-12-16T11:47:11.415Z,92.20
2018-12-16T11:49:39.365Z,92.30
2018-12-16T11:52:07.200Z,92.30
2018-12-16T11:54:35.096Z,92.50
2018-12-16T11:57:02.850Z,92.40
2018-12-16T11:59:30.571Z,92.40
2018-12-16T12:01:58.290Z,92.30
2018-12-16T12:04:26.129Z,92.60
2018-12-16T12:06:54.798Z,92.50
2018-12-16T12:09:22.560Z,92.40
2018-12-16T12:11:51.844Z,92.50
2018-12-16T12:14:19.651Z,92.00
2018-12-16T12:16:47.566Z,91.30
2018-12-16T12:19:15.339Z,91.10
2018-12-16T12:21:48.571Z,91.50
2018-12-16T12:24:16.795Z,92.00
2018-12-16T12:26:44.527Z,92.30
2018-12-16T12:29:12.279Z,92.80
2018-12-16T12:31:40.063Z,93.20
2018-12-16T12:34:08.012Z,93.40
2018-12-16T12:36:35.864Z,93.70
2018-12-16T12:39:05.576Z,93.80
2018-12-16T12:41:33.362Z,93.70
2018-12-16T12:44:01.098Z,93.90
2018-12-16T12:46:28.853Z,94.10
2018-12-16T12:48:56.623Z,93.40
2018-12-16T12:51:24.466Z,93.00
2018-12-16T12:53:52.230Z,92.60
2018-12-16T12:56:20.020Z,92.50
2018-12-16T12:58:47.763Z,92.20
2018-12-16T13:01:15.545Z,92.00
2018-12-16T13:03:44.208Z,92.40
2018-12-16T13:06:12.007Z,92.80
2018-12-16T13:08:39.879Z,92.80
2018-12-16T13:11:07.695Z,92.80
2018-12-16T13:13:35.775Z,92.30
2018-12-16T13:16:03.511Z,92.00
2018-12-16T13:18:31.287Z,92.30
2018-12-16T13:20:59.033Z,92.20
2018-12-16T13:23:26.815Z,92.20
2018-12-16T13:26:03.280Z,91.80
2018-12-16T13:28:31.263Z,92.10
2018-12-16T13:30:59.151Z,92.40
2018-12-16T13:33:26.920Z,92.60
2018-12-16T13:35:54.778Z,92.90
2018-12-16T13:38:22.519Z,92.90
2018-12-16T13:40:50.950Z,91.80
2018-12-16T13:43:18.931Z,91.70
2018-12-16T13:45:46.780Z,91.50
2018-12-16T13:48:14.539Z,91.10
2018-12-16T13:50:42.423Z,91.00
2018-12-16T13:53:10.413Z,91.40
2018-12-16T13:55:41.005Z,91.80
2018-12-16T13:58:08.226Z,92.10
2018-12-16T14:00:36.345Z,92.50
2018-12-16T14:03:04.117Z,91.60
2018-12-16T14:05:31.923Z,91.50
2018-12-16T14:07:59.743Z,91.30
2018-12-16T14:10:27.528Z,91.50
2018-12-16T14:12:55.254Z,91.80
2018-12-16T14:15:23.167Z,91.80
2018-12-16T14:17:50.927Z,92.40
2018-12-16T14:20:18.748Z,92.40
2018-12-16T14:22:46.561Z,92.40
2018-12-16T14:25:15.206Z,92.80
2018-12-16T14:27:42.971Z,93.20
2018-12-16T14:30:11.340Z,93.20
2018-12-16T14:32:39.305Z,92.70
2018-12-16T14:35:09.142Z,92.80
2018-12-16T14:37:36.986Z,92.90
2018-12-16T14:40:06.190Z,92.60
2018-12-16T14:42:33.968Z,92.60
2018-12-16T14:45:01.700Z,93.00
2018-12-16T14:47:29.613Z,93.40
2018-12-16T14:49:57.479Z,93.50
2018-12-16T14:52:25.191Z,93.80
2018-12-16T14:54:52.914Z,93.80
2018-12-16T14:57:20.680Z,93.80
2018-12-16T14:59:48.564Z,93.80
2018-12-16T15:02:16.425Z,93.50
2018-12-16T15:04:44.174Z,93.10
2018-12-16T15:07:12.009Z,92.40
2018-12-16T15:09:39.959Z,92.20
2018-12-16T15:12:07.833Z,91.70
2018-12-16T15:14:35.662Z,91.70
2018-12-16T15:17:03.569Z,92.00
2018-12-16T15:19:31.300Z,92.30
2018-12-16T15:21:59.142Z,92.80
2018-12-16T15:24:26.907Z,93.10
2018-12-16T15:26:54.663Z,93.50
2018-12-16T15:29:22.399Z,93.80
2018-12-16T15:31:50.143Z,93.80
2018-12-16T15:34:17.978Z,93.30
2018-12-16T15:36:46.220Z,92.90
2018-12-16T15:39:13.982Z,92.80
2018-12-16T15:41:41.715Z,92.80
2018-12-16T15:44:11.484Z,92.90
2018-12-16T15:46:39.483Z,93.40
2018-12-16T15:49:07.236Z,93.60
2018-12-16T15:51:34.993Z,94.10
2018-12-16T15:54:02.878Z,94.50
2018-12-16T15:56:30.660Z,94.70
2018-12-16T15:58:58.384Z,94.60
2018-12-16T16:01:26.136Z,94.80
2018-12-16T16:03:54.220Z,94.70
2018-12-16T16:06:21.955Z,94.70
2018-12-16T16:08:49.686Z,94.90
2018-12-16T16:11:17.822Z,95.10
2018-12-16T16:13:45.574Z,95.20
2018-12-16T16:16:13.330Z,95.10
2018-12-16T16:18:41.170Z,95.10
2018-12-16T16:21:09.126Z,95.30
2018-12-16T16:23:37.199Z,95.40
2018-12-16T16:26:04.959Z,94.90
2018-12-16T16:28:32.651Z,94.30
2018-12-16T16:31:00.412Z,94.00
2018-12-16T16:33:28.259Z,94.30
2018-12-16T16:35:56.039Z,94.60
2018-12-16T16:38:23.763Z,94.90
2018-12-16T16:40:51.491Z,94.90
2018-12-16T16:43:19.390Z,95.10
2018-12-16T16:45:47.375Z,95.10
2018-12-16T16:48:15.283Z,95.00
2018-12-16T16:50:43.062Z,94.60
2018-12-16T16:53:11.223Z,94.90
2018-12-16T16:55:39.296Z,95.20
2018-12-16T16:58:07.191Z,95.50
2018-12-16T17:00:35.143Z,95.80
2018-12-16T17:03:03.352Z,96.00
2018-12-16T17:05:31.240Z,95.90
2018-12-16T17:07:59.158Z,95.60
2018-12-16T17:10:27.219Z,95.40
2018-12-16T17:12:55.183Z,95.50
2018-12-16T17:15:23.214Z,95.60
2018-12-16T17:17:51.200Z,95.80
2018-12-16T17:20:19.052Z,96.00
2018-12-16T17:22:46.777Z,96.20
2018-12-16T17:25:14.644Z,96.30
2018-12-16T17:27:42.438Z,96.40
2018-12-16T17:30:11.017Z,96.30
2018-12-16T17:32:38.901Z,96.20
2018-12-16T17:35:06.898Z,96.10
2018-12-16T17:37:34.692Z,95.90
2018-12-16T17:40:02.594Z,95.90
2018-12-16T17:42:30.420Z,96.00
2018-12-16T17:44:58.199Z,96.10
2018-12-16T17:47:25.963Z,96.10
2018-12-16T17:49:53.759Z,96.10
2018-12-16T17:52:22.706Z,95.90
2018-12-16T17:54:50.798Z,95.80
2018-12-16T17:57:18.663Z,96.00
2018-12-16T17:59:46.455Z,95.50
2018-12-16T18:02:14.291Z,95.60
2018-12-16T18:04:42.213Z,95.50
2018-12-16T18:07:09.995Z,95.90
2018-12-16T18:09:37.764Z,95.70
2018-12-16T18:12:05.614Z,95.00
2018-12-16T18:14:33.433Z,94.70
2018-12-16T18:17:02.340Z,94.90
2018-12-16T18:19:30.235Z,94.80
2018-12-16T18:21:58.012Z,95.40
2018-12-16T18:24:25.779Z,95.80
2018-12-16T18:26:53.859Z,95.90
2018-12-16T18:29:21.686Z,95.60
2018-12-16T18:31:49.581Z,95.70
2018-12-16T18:34:17.484Z,95.00
2018-12-16T18:36:45.306Z,95.50
2018-12-16T18:39:13.257Z,95.50
2018-12-16T18:41:41.167Z,95.30
2018-12-16T18:44:09.307Z,95.50
2018-12-16T18:46:37.061Z,96.30
2018-12-16T18:49:04.977Z,96.70
2018-12-16T18:51:32.750Z,96.00
2018-12-16T18:54:00.639Z,96.00
2018-12-16T18:56:28.370Z,95.80
2018-12-16T18:58:56.229Z,95.10
2018-12-16T19:01:24.191Z,94.60
2018-12-16T19:03:52.582Z,93.60
2018-12-16T19:06:20.298Z,93.10
2018-12-16T19:08:48.151Z,93.20
2018-12-16T19:11:16.004Z,93.50
2018-12-16T19:13:43.839Z,93.40
2018-12-16T19:16:11.915Z,93.30
2018-12-16T19:18:40.103Z,93.50
2018-12-16T19:21:08.073Z,94.00
2018-12-16T19:23:35.862Z,94.60
2018-12-16T19:26:03.771Z,95.20
2018-12-16T19:28:31.628Z,95.00
2018-12-16T19:31:00.479Z,95.20
2018-12-16T19:33:28.222Z,95.40
2018-12-16T19:35:56.023Z,95.30
2018-12-16T19:38:23.766Z,95.40
2018-12-16T19:40:51.669Z,95.40
2018-12-16T19:43:19.595Z,95.70
2018-12-16T19:45:47.428Z,95.70
2018-12-16T19:48:15.264Z,95.70
2018-12-16T19:50:43.204Z,95.70
2018-12-16T19:53:11.128Z,95.80
2018-12-16T19:55:38.967Z,96.00
2018-12-16T19:58:06.836Z,96.20
2018-12-16T20:00:34.659Z,96.40
2018-12-16T20:03:02.448Z,96.60
2018-12-16T20:05:32.232Z,96.60
2018-12-16T20:08:00.030Z,96.80
2018-12-16T20:10:27.879Z,96.50
2018-12-16T20:12:55.748Z,96.40
2018-12-16T20:15:23.734Z,95.70
2018-12-16T20:17:51.582Z,94.90
2018-12-16T20:20:19.578Z,94.30
2018-12-16T20:22:47.439Z,93.90
2018-12-16T20:25:15.311Z,94.00
2018-12-16T20:27:43.238Z,94.80
2018-12-16T20:30:11.167Z,95.10
2018-12-16T20:32:39.023Z,95.70
2018-12-16T20:35:06.807Z,96.00
2018-12-16T20:37:35.311Z,96.40
2018-12-16T20:40:03.366Z,96.70
2018-12-16T20:42:31.138Z,96.90
2018-12-16T20:44:58.885Z,97.00
2018-12-16T20:47:27.567Z,97.10
2018-12-16T20:49:55.368Z,97.10
2018-12-16T20:52:24.054Z,97.50
2018-12-16T20:54:51.799Z,97.30
2018-12-16T20:57:19.598Z,97.40
2018-12-16T20:59:47.409Z,97.60
2018-12-16T21:02:15.278Z,97.50
2018-12-16T21:04:43.047Z,97.20
2018-12-16T21:07:10.817Z,97.10
2018-12-16T21:09:38.573Z,96.30
2018-12-16T21:12:10.963Z,95.90
2018-12-16T21:14:44.303Z,95.80
2018-12-16T21:17:17.766Z,95.10
2018-12-16T21:19:45.635Z,95.00
2018-12-16T21:22:13.513Z,94.50
2018-12-16T21:24:41.372Z,94.30
2018-12-16T21:27:09.660Z,94.50
2018-12-16T21:29:37.422Z,95.20
2018-12-16T21:32:05.190Z,95.40
2018-12-16T21:34:32.966Z,94.50
2018-12-16T21:37:00.837Z,94.30
2018-12-16T21:39:28.752Z,94.40
2018-12-16T21:41:56.546Z,94.60
2018-12-16T21:44:24.464Z,95.00
2018-12-16T21:46:52.203Z,95.60
2018-12-16T21:49:20.231Z,95.90
2018-12-16T21:51:48.067Z,95.80
2018-12-16T21:54:15.826Z,96.00
2018-12-16T21:56:43.835Z,96.40
2018-12-16T21:59:11.711Z,96.50
2018-12-16T22:01:39.577Z,97.00
2018-12-16T22:04:07.358Z,97.30
2018-12-16T22:06:35.238Z,97.60
2018-12-16T22:09:04.355Z,98.00
2018-12-16T22:11:32.135Z,97.30
2018-12-16T22:14:00.237Z,96.70
2018-12-16T22:16:27.959Z,96.20
2018-12-16T22:18:55.719Z,96.00
2018-12-16T22:21:23.482Z,96.30
2018-12-16T22:23:51.232Z,96.20
2018-12-16T22:26:19.383Z,96.10
2018-12-16T22:28:48.311Z,95.80
2018-12-16T22:31:18.291Z,95.50
2018-12-16T22:33:46.187Z,95.90
2018-12-16T22:36:14.066Z,96.40
2018-12-16T22:38:42.664Z,96.70
2018-12-16T22:41:10.434Z,96.70
2018-12-16T22:43:38.792Z,97.00
2018-12-16T22:46:06.574Z,97.00
2018-12-16T22:48:34.414Z,97.10
2018-12-16T22:51:02.245Z,96.90
2018-12-16T22:53:30.202Z,97.30
2018-12-16T22:55:59.428Z,96.80
2018-12-16T22:58:27.175Z,96.70
2018-12-16T23:01:00.860Z,96.90
2018-12-16T23:03:28.631Z,96.90
2018-12-16T23:05:56.433Z,96.40
2018-12-16T23:08:24.202Z,96.20
2018-12-16T23:10:52.007Z,96.50
2018-12-16T23:13:20.052Z,96.60
2018-12-16T23:15:47.931Z,96.70
2018-12-16T23:18:15.760Z,96.80
2018-12-16T23:20:43.738Z,96.90
2018-12-16T23:23:11.454Z,96.90
2018-12-16T23:25:40.075Z,96.90
2018-12-16T23:28:08.348Z,96.90
2018-12-16T23:30:36.111Z,96.90
2018-12-16T23:33:03.973Z,96.80
2018-12-16T23:35:31.742Z,96.80
2018-12-16T23:37:59.503Z,96.90
2018-12-16T23:40:27.274Z,97.30
2018-12-16T23:42:55.031Z,97.10
2018-12-16T23:45:22.775Z,96.70
2018-12-16T23:47:50.494Z,95.60
2018-12-16T23:50:18.363Z,95.30
2018-12-16T23:52:46.208Z,95.20
2018-12-16T23:55:13.986Z,95.70
2018-12-16T23:57:41.748Z,96.10
